Terminal Aerodrome Forecast
Issued by NWS

Home | Current Version | Previous Version | Text Only | Print | Product List | Glossary On
Versions: 1 2 3 4 5 6 7 8 9 10 11 12 13 14 15 16 17 18 19 20
822
FTUS42 KTAE 191739
TAFDHN
TAF
KDHN 191739Z 1918/2018 16010KT P6SM SCT017 OVC070
     FM200600 14004KT 4SM BR SCT250
     FM200900 12006KT 2SM BR BKN015 OVC050
     FM201500 12007KT P6SM SCT007 OVC015=

USA.gov is the U.S. government's official web portal to all federal, state and local government web resources and services.